Domov               UVHVVR             MKGP            O straneh              
ZDRAVSTVENO VARSTVO RASTLIN
  MREŽA AGROMET. POSTAJ
 ► PROGNOSTIČNA OBVESTILA
AGROMETEOROLOŠKI PODATKI -
ARSO
OBVLADOVANJE TVEGANJ ZARADI
NEUGODNIH VREMENSKIH RAZMER
  ► NARAVNE NESREČE
  ► SUŠA/MOČA
  ► NAMAKANJE
  ► ŽLED (gozdarstvo)
KARTOGRAFSKI PRIKAZI
SPLETNE POVEZAVE
PROJEKTI IN PUBLIKACIJE

AGROMETEOROLOŠKA MREŽA: VREMENSKE POSTAJE IN FENOLOŠKA OPAZOVANJA

Pregled podatkov za lokacijo Komen, meteorološka postaja 42394

Pregled senzorjev na lokaciji

ID Ime Zadnja
vrednost
Datum in čas
zadnje
spremembe
(Lokalni čas)
Tip
senzorja
4430 Omočenost lista (1,5 m) (U) 0 U 22.1.2022 03:00 A730WET
4431 Padavine (mm) 0 mm 22.1.2022 03:00 Generic 0.2 mm
4429 Relativna zračna vlaga (2 m) (%RH) 66 %RH 22.1.2022 03:00 50YA
4428 Temperatura (2 m) (°C) -2.2 °C 22.1.2022 03:00 50YA

Pregled podatkov zadnjih 24 ur

Zap.
št.
Datum in čas
(Centralno
evropski čas)
Komen
Omočenost
lista
(1,5
m)
Padavine Relativna
zračna
vlaga
(2
m)
Temperatura
(2
m)
1 22.1.2022 02:30 0 0 68.2 -2.6
2 22.1.2022 02:00 0 0 72.6 -3.8
3 22.1.2022 01:30 0 0 67.9 -2.7
4 22.1.2022 01:00 0 0 66.1 -2.2
5 22.1.2022 00:30 0 0 65.3 -2
6 22.1.2022 00:00 0 0 66.6 -2.2
7 21.1.2022 23:30 0 0 68.3 -2.8
8 21.1.2022 23:00 0 0 64.8 -2.1
9 21.1.2022 22:30 0 0 62 -1.7
10 21.1.2022 22:00 0 0 57.9 -1.3
11 21.1.2022 21:30 0 0 58.2 -1.1
12 21.1.2022 21:00 0 0 59.9 -1.5
13 21.1.2022 20:30 0 0 58.5 -1.2
14 21.1.2022 20:00 0 0 54.3 -0.6
15 21.1.2022 19:30 0 0 56.6 -1.1
16 21.1.2022 19:00 0 0 56.3 -0.9
17 21.1.2022 18:30 0 0 47.9 1
18 21.1.2022 18:00 0 0 46.7 1.1
19 21.1.2022 17:30 0 0 39.7 3
20 21.1.2022 17:00 0 0 36.3 4.2
21 21.1.2022 16:30 0 0 33.6 5.1
22 21.1.2022 16:00 0 0 32.8 5.7
23 21.1.2022 15:30 0 0 32.2 6.1
24 21.1.2022 15:00 0 0 32.8 6.2
25 21.1.2022 14:30 0 0 33.6 6.3
26 21.1.2022 14:00 0 0 33.8 6.2
27 21.1.2022 13:30 0 0 37.6 6.3
28 21.1.2022 13:00 0 0 39.4 5.9
29 21.1.2022 12:30 0 0 41.1 5.6
30 21.1.2022 12:00 0 0 43.3 5.6
31 21.1.2022 11:30 0 0 37.5 6.1
32 21.1.2022 11:00 0 0 33.1 6.1
33 21.1.2022 10:30 0 0 39.7 5.6
34 21.1.2022 10:00 0 0 47.8 4.8
35 21.1.2022 09:30 0 0 52.8 4.1
36 21.1.2022 09:00 0 0 61.4 3.2
37 21.1.2022 08:30 0 0 65.8 2.6
38 21.1.2022 08:00 0 0 70.2 2.2
39 21.1.2022 07:30 0 0 70.5 2.3
40 21.1.2022 07:00 0 0 70.9 2.4
41 21.1.2022 06:30 0 0 73.3 2.4
42 21.1.2022 06:00 0 0 74 2.6
43 21.1.2022 05:30 0 0 75.5 2.7
44 21.1.2022 05:00 0 0 76 2.8
45 21.1.2022 04:30 0 0 81.2 2.5
46 21.1.2022 04:00 0 0 96 1.9
47 21.1.2022 03:30 0 0 98 1.5
© 2011 Ministrstvo za kmetijstvo, gozdarstvo in prehrano. Vse pravice pridržane.